Arab, Alabama
Current Conditions -  °F | °C
As of 6:15 PM on Thursday 27 Nov 2014 (Local Time) from K8A0 Reporting Station
Broken Clouds Broken Clouds  
Wind Chill: -1°   Ceiling: 3700
Heat Index:   Visibility: 10mi
Dew Point:   Wind: 9mph
Humidity: 81%   Direction: 320°NW
Pressure: 30.38"   Gusts: 16mph
Location:  34.32°N, 86.49°W
Report Text: K8A0 280015Z AUTO 32008G14KT 10SM SCT031 BKN037 03/00 A3038 RMK AO2
Loading
Personal Weather Stations






























Interactive Weather Map New forecast layout! Learn more

10-Day Weather Forecast

Advertisements
Track Severe Weather on mobile